createdAt,value
2017-08-15T00:02:06.323Z,3.90
2017-08-15T00:04:33.079Z,3.20
2017-08-15T00:06:59.795Z,4.00
2017-08-15T00:09:26.590Z,3.77
2017-08-15T00:11:53.321Z,3.90
2017-08-15T00:14:20.023Z,6.03
2017-08-15T00:16:46.741Z,5.30
2017-08-15T00:19:13.463Z,3.87
2017-08-15T00:21:40.169Z,3.67
2017-08-15T00:24:06.874Z,5.43
2017-08-15T00:26:33.587Z,3.73
2017-08-15T00:29:00.310Z,3.83
2017-08-15T00:31:27.027Z,3.67
2017-08-15T00:33:53.830Z,4.20
2017-08-15T00:36:20.564Z,4.50
2017-08-15T00:38:47.291Z,3.40
2017-08-15T00:41:14.098Z,4.03
2017-08-15T00:43:40.800Z,4.57
2017-08-15T00:46:07.570Z,4.30
2017-08-15T00:48:34.353Z,4.10
2017-08-15T00:51:01.074Z,4.03
2017-08-15T00:53:27.795Z,4.30
2017-08-15T00:55:54.593Z,4.03
2017-08-15T00:58:21.306Z,4.10
2017-08-15T01:00:48.052Z,3.30
2017-08-15T01:03:14.807Z,3.37
2017-08-15T01:05:41.595Z,4.50
2017-08-15T01:08:08.327Z,4.60
2017-08-15T01:10:35.079Z,4.53
2017-08-15T01:13:01.794Z,4.10
2017-08-15T01:15:28.509Z,4.40
2017-08-15T01:17:55.356Z,4.30
2017-08-15T01:20:22.164Z,4.50
2017-08-15T01:22:48.885Z,4.40
2017-08-15T01:25:15.653Z,4.70
2017-08-15T01:27:42.376Z,3.87
2017-08-15T01:30:09.154Z,3.53
2017-08-15T01:32:35.922Z,3.97
2017-08-15T01:35:02.652Z,4.47
2017-08-15T01:37:29.395Z,3.40
2017-08-15T01:39:56.192Z,4.90
2017-08-15T01:42:22.903Z,3.67
2017-08-15T01:44:49.602Z,3.83
2017-08-15T01:47:16.331Z,3.77
2017-08-15T01:49:43.050Z,4.00
2017-08-15T01:52:09.768Z,4.20
2017-08-15T01:54:36.493Z,3.97
2017-08-15T01:57:03.377Z,4.57
2017-08-15T01:59:30.119Z,4.73
2017-08-15T02:01:56.849Z,4.63
2017-08-15T02:04:23.551Z,4.10
2017-08-15T02:06:50.340Z,4.00
2017-08-15T02:09:17.112Z,4.53
2017-08-15T02:11:43.818Z,4.77
2017-08-15T02:14:10.619Z,4.40
2017-08-15T02:16:37.422Z,4.63
2017-08-15T02:19:04.114Z,5.53
2017-08-15T02:21:30.806Z,4.30
2017-08-15T02:23:57.546Z,4.23
2017-08-15T02:26:24.255Z,4.03
2017-08-15T02:28:51.043Z,3.90
2017-08-15T02:31:17.753Z,4.07
2017-08-15T02:33:44.461Z,3.83
2017-08-15T02:36:11.196Z,4.00
2017-08-15T02:38:37.928Z,3.90
2017-08-15T02:41:04.633Z,4.00
2017-08-15T02:43:31.360Z,4.53
2017-08-15T02:45:58.090Z,3.60
2017-08-15T02:48:24.795Z,3.50
2017-08-15T02:50:51.539Z,3.63
2017-08-15T02:53:18.253Z,4.27
2017-08-15T02:55:44.983Z,4.30
2017-08-15T02:58:11.688Z,4.03
2017-08-15T03:00:38.466Z,3.90
2017-08-15T03:03:05.166Z,4.10
2017-08-15T03:05:31.882Z,4.43
2017-08-15T03:07:58.693Z,4.23
2017-08-15T03:10:25.397Z,4.30
2017-08-15T03:12:52.109Z,4.93
2017-08-15T03:15:18.866Z,6.63
2017-08-15T03:17:45.581Z,4.40
2017-08-15T03:20:12.270Z,5.13
2017-08-15T03:22:38.997Z,4.20
2017-08-15T03:25:05.802Z,4.10
2017-08-15T03:27:32.511Z,4.47
2017-08-15T03:29:59.257Z,4.47
2017-08-15T03:32:26.130Z,5.60
2017-08-15T03:34:52.836Z,5.00
2017-08-15T03:37:19.637Z,4.93
2017-08-15T03:39:46.348Z,4.97
2017-08-15T03:42:13.069Z,4.07
2017-08-15T03:44:39.823Z,4.63
2017-08-15T03:47:06.565Z,4.50
2017-08-15T03:49:33.269Z,4.90
2017-08-15T03:51:59.991Z,3.93
2017-08-15T03:54:26.691Z,5.30
2017-08-15T03:56:53.422Z,6.00
2017-08-15T03:59:20.147Z,5.40
2017-08-15T04:01:46.863Z,4.43
2017-08-15T04:04:13.562Z,4.10
2017-08-15T04:06:40.299Z,5.67
2017-08-15T04:09:07.077Z,4.73
2017-08-15T04:11:33.865Z,5.13
2017-08-15T04:14:00.602Z,4.60
2017-08-15T04:16:27.314Z,4.87
2017-08-15T04:18:54.019Z,4.03
2017-08-15T04:21:20.761Z,4.77
2017-08-15T04:23:47.478Z,4.50
2017-08-15T04:26:14.178Z,4.67
2017-08-15T04:28:40.926Z,5.80
2017-08-15T04:31:07.623Z,4.77
2017-08-15T04:33:34.427Z,4.40
2017-08-15T04:36:01.184Z,4.30
2017-08-15T04:38:27.895Z,4.87
2017-08-15T04:40:54.626Z,4.37
2017-08-15T04:43:21.428Z,5.00
2017-08-15T04:45:48.164Z,4.00
2017-08-15T04:48:14.874Z,4.87
2017-08-15T04:50:41.598Z,4.00
2017-08-15T04:53:08.334Z,4.60
2017-08-15T04:55:35.050Z,4.33
2017-08-15T04:58:01.819Z,4.90
2017-08-15T05:00:28.531Z,4.20
2017-08-15T05:02:55.242Z,4.90
2017-08-15T05:05:22.062Z,6.23
2017-08-15T05:07:48.783Z,5.27
2017-08-15T05:10:15.500Z,4.83
2017-08-15T05:12:42.337Z,5.10
2017-08-15T05:15:09.054Z,5.03
2017-08-15T05:17:35.764Z,4.87
2017-08-15T05:20:02.495Z,6.10
2017-08-15T05:22:29.286Z,5.07
2017-08-15T05:24:56.010Z,9.10
2017-08-15T05:27:22.733Z,5.73
2017-08-15T05:29:49.452Z,5.30
2017-08-15T05:32:16.188Z,7.57
2017-08-15T05:34:42.937Z,8.50
2017-08-15T05:37:09.638Z,6.70
2017-08-15T05:39:36.361Z,6.10
2017-08-15T05:42:03.100Z,5.37
2017-08-15T05:44:29.812Z,5.37
2017-08-15T05:46:56.514Z,9.53
2017-08-15T05:49:23.278Z,8.53
2017-08-15T05:51:50.016Z,5.27
2017-08-15T05:54:16.734Z,5.97
2017-08-15T05:56:43.476Z,5.00
2017-08-15T05:59:10.172Z,5.17
2017-08-15T06:01:36.880Z,4.60
2017-08-15T06:04:03.681Z,4.80
2017-08-15T06:06:30.536Z,6.10
2017-08-15T06:08:57.265Z,5.43
2017-08-15T06:11:24.013Z,6.93
2017-08-15T06:13:50.727Z,5.23
2017-08-15T06:16:17.490Z,4.80
2017-08-15T06:18:45.219Z,5.00
2017-08-15T06:21:11.999Z,5.60
2017-08-15T06:23:38.703Z,4.80
2017-08-15T06:26:05.447Z,5.37
2017-08-15T06:28:32.170Z,4.90
2017-08-15T06:30:58.884Z,5.13
2017-08-15T06:33:25.644Z,5.63
2017-08-15T06:35:52.347Z,7.13
2017-08-15T06:38:19.061Z,5.57
2017-08-15T06:40:45.952Z,5.10
2017-08-15T06:43:12.690Z,5.83
2017-08-15T06:45:39.402Z,5.07
2017-08-15T06:48:06.131Z,5.07
2017-08-15T06:50:33.276Z,5.20
2017-08-15T06:52:59.980Z,4.70
2017-08-15T06:55:26.716Z,4.73
2017-08-15T06:57:53.430Z,6.23
2017-08-15T07:00:20.149Z,5.73
2017-08-15T07:02:46.878Z,4.67
2017-08-15T07:05:28.003Z,4.93
2017-08-15T07:11:02.283Z,4.10
2017-08-15T07:13:29.020Z,3.87
2017-08-15T07:15:55.755Z,5.40
2017-08-15T07:18:22.480Z,5.00
2017-08-15T07:20:49.195Z,5.03
2017-08-15T07:23:15.927Z,4.60
2017-08-15T07:25:42.687Z,5.37
2017-08-15T07:28:09.414Z,4.10
2017-08-15T07:30:36.133Z,6.17
2017-08-15T07:33:03.132Z,4.97
2017-08-15T07:35:29.860Z,5.20
2017-08-15T07:37:56.572Z,4.27
2017-08-15T07:40:23.298Z,4.27
2017-08-15T07:42:50.008Z,4.70
2017-08-15T07:45:16.797Z,4.13
2017-08-15T07:47:53.991Z,3.90
2017-08-15T07:50:20.719Z,4.50
2017-08-15T07:53:04.036Z,6.20
2017-08-15T07:55:48.096Z,4.47
2017-08-15T07:58:37.979Z,4.33
2017-08-15T08:04:23.097Z,4.73
2017-08-15T08:07:08.561Z,5.47
2017-08-15T08:12:44.931Z,4.00
2017-08-15T08:15:32.131Z,4.60
2017-08-15T08:18:02.805Z,5.67
2017-08-15T08:20:51.610Z,4.20
2017-08-15T08:23:35.264Z,5.10
2017-08-15T08:29:14.264Z,4.30
2017-08-15T08:32:03.501Z,3.40
2017-08-15T08:34:52.310Z,4.70
2017-08-15T08:37:23.404Z,4.47
2017-08-15T08:39:50.170Z,3.27
2017-08-15T08:42:39.795Z,4.13
2017-08-15T08:45:24.912Z,3.97
2017-08-15T08:48:11.527Z,9.37
2017-08-15T08:50:59.819Z,3.10
2017-08-15T08:53:46.808Z,2.80
2017-08-15T08:56:35.376Z,3.57
2017-08-15T08:59:31.446Z,2.87
2017-08-15T09:02:10.079Z,3.10
2017-08-15T09:07:50.673Z,2.80
2017-08-15T09:10:34.164Z,2.70
2017-08-15T09:13:15.754Z,2.97
2017-08-15T09:16:01.098Z,2.90
2017-08-15T09:18:42.688Z,2.70
2017-08-15T09:24:12.671Z,3.00
2017-08-15T09:27:09.425Z,3.03
2017-08-15T09:32:33.021Z,3.70
2017-08-15T09:35:23.722Z,3.37
2017-08-15T09:41:34.508Z,3.20
2017-08-15T09:44:01.679Z,3.00
2017-08-15T09:46:48.755Z,2.80
2017-08-15T09:49:44.771Z,2.60
2017-08-15T09:52:23.449Z,3.30
2017-08-15T10:01:29.866Z,2.70
2017-08-15T10:04:30.324Z,2.87
2017-08-15T10:07:20.375Z,2.80
2017-08-15T10:09:54.133Z,2.80
2017-08-15T10:23:54.344Z,2.50
2017-08-15T10:29:35.270Z,3.20
2017-08-15T10:32:02.000Z,3.70
2017-08-15T10:34:28.744Z,2.90
2017-08-15T10:36:55.471Z,3.07
2017-08-15T10:39:22.189Z,2.87
2017-08-15T10:41:48.922Z,2.70
2017-08-15T10:44:15.645Z,2.87
2017-08-15T10:46:42.373Z,2.60
2017-08-15T10:49:09.107Z,2.73
2017-08-15T10:51:35.829Z,2.80
2017-08-15T10:54:02.557Z,3.40
2017-08-15T10:56:29.324Z,2.60
2017-08-15T10:58:56.436Z,2.30
2017-08-15T11:01:23.186Z,3.17
2017-08-15T11:03:49.886Z,2.97
2017-08-15T11:06:16.591Z,3.13
2017-08-15T11:08:43.304Z,2.90
2017-08-15T11:11:10.030Z,2.50
2017-08-15T11:13:36.755Z,2.73
2017-08-15T11:16:03.462Z,3.13
2017-08-15T11:18:30.176Z,2.50
2017-08-15T11:20:56.873Z,2.60
2017-08-15T11:23:23.599Z,2.77
2017-08-15T11:25:50.326Z,2.30
2017-08-15T11:28:17.029Z,2.50
2017-08-15T11:30:43.733Z,2.53
2017-08-15T11:33:10.463Z,2.80
2017-08-15T11:35:37.169Z,3.00
2017-08-15T11:38:03.888Z,2.83
2017-08-15T11:40:30.605Z,2.50
2017-08-15T11:42:57.355Z,2.37
2017-08-15T11:47:57.210Z,2.53
2017-08-15T11:50:23.935Z,2.53
2017-08-15T11:52:50.642Z,3.10
2017-08-15T11:55:17.350Z,2.67
2017-08-15T11:57:44.084Z,2.53
2017-08-15T12:00:10.825Z,3.03
2017-08-15T12:02:37.573Z,2.70
2017-08-15T12:05:04.297Z,2.80
2017-08-15T12:07:31.038Z,2.87
2017-08-15T12:09:57.766Z,3.07
2017-08-15T12:12:24.478Z,2.70
2017-08-15T12:14:51.236Z,2.90
2017-08-15T12:17:17.955Z,2.40
2017-08-15T12:19:44.666Z,2.20
2017-08-15T12:22:11.390Z,2.90
2017-08-15T12:24:38.105Z,3.10
2017-08-15T12:27:04.838Z,2.73
2017-08-15T12:29:31.570Z,2.50
2017-08-15T12:31:58.276Z,2.57
2017-08-15T12:34:24.986Z,2.90
2017-08-15T12:36:51.691Z,2.63
2017-08-15T12:39:18.453Z,2.53
2017-08-15T12:41:45.178Z,2.70
2017-08-15T12:44:11.910Z,2.77
2017-08-15T12:46:38.639Z,2.47
2017-08-15T12:49:05.366Z,2.73
2017-08-15T12:51:32.086Z,2.67
2017-08-15T12:53:58.809Z,2.80
2017-08-15T12:56:25.520Z,2.80
2017-08-15T12:58:52.270Z,2.83
2017-08-15T13:01:18.994Z,2.33
2017-08-15T13:03:45.712Z,5.83
2017-08-15T13:06:12.431Z,2.67
2017-08-15T13:08:39.248Z,3.37
2017-08-15T13:11:05.962Z,2.90
2017-08-15T13:13:32.667Z,2.60
2017-08-15T13:15:59.400Z,2.87
2017-08-15T13:18:26.111Z,2.80
2017-08-15T13:20:52.838Z,2.80
2017-08-15T13:23:19.600Z,3.23
2017-08-15T13:25:46.335Z,2.90
2017-08-15T13:28:13.079Z,3.20
2017-08-15T13:30:39.804Z,2.57
2017-08-15T13:33:06.539Z,2.23
2017-08-15T13:35:33.277Z,2.87
2017-08-15T13:38:00.039Z,2.37
2017-08-15T13:40:26.775Z,2.63
2017-08-15T13:42:53.495Z,2.27
2017-08-15T13:45:20.225Z,2.60
2017-08-15T13:47:46.974Z,2.57
2017-08-15T13:50:13.693Z,2.13
2017-08-15T13:52:40.408Z,2.30
2017-08-15T13:55:07.155Z,2.60
2017-08-15T13:57:33.862Z,2.73
2017-08-15T14:00:00.624Z,2.63
2017-08-15T14:02:27.375Z,2.40
2017-08-15T14:04:54.114Z,2.40
2017-08-15T14:07:20.863Z,2.43
2017-08-15T14:09:47.596Z,2.40
2017-08-15T14:12:14.336Z,2.20
2017-08-15T14:14:41.080Z,2.70
2017-08-15T14:17:07.784Z,2.63
2017-08-15T14:19:34.530Z,2.00
2017-08-15T14:22:01.296Z,3.30
2017-08-15T14:24:28.005Z,2.73
2017-08-15T14:26:54.746Z,2.30
2017-08-15T14:29:21.491Z,4.13
2017-08-15T14:31:48.239Z,2.20
2017-08-15T14:34:14.939Z,2.20
2017-08-15T14:36:41.700Z,2.60
2017-08-15T14:39:08.441Z,3.20
2017-08-15T14:41:35.177Z,2.60
2017-08-15T14:44:01.938Z,2.30
2017-08-15T14:46:28.683Z,2.83
2017-08-15T14:48:55.431Z,2.57
2017-08-15T14:51:22.166Z,2.10
2017-08-15T14:53:48.930Z,2.70
2017-08-15T14:56:15.663Z,2.50
2017-08-15T14:58:42.422Z,2.57
2017-08-15T15:01:09.166Z,3.37
2017-08-15T15:03:35.910Z,2.73
2017-08-15T15:06:02.664Z,2.23
2017-08-15T15:08:29.404Z,2.70
2017-08-15T15:10:56.143Z,2.60
2017-08-15T15:13:22.897Z,2.07
2017-08-15T15:15:49.663Z,3.13
2017-08-15T15:18:16.426Z,4.03
2017-08-15T15:20:43.167Z,2.33
2017-08-15T15:23:09.918Z,2.67
2017-08-15T15:25:36.664Z,3.93
2017-08-15T15:28:03.419Z,2.70
2017-08-15T15:30:30.200Z,2.30
2017-08-15T15:32:56.938Z,2.60
2017-08-15T15:35:23.682Z,2.93
2017-08-15T15:37:50.387Z,2.73
2017-08-15T15:40:17.131Z,2.90
2017-08-15T15:42:43.879Z,3.33
2017-08-15T15:45:10.614Z,3.10
2017-08-15T15:47:37.350Z,2.73
2017-08-15T15:50:04.055Z,3.00
2017-08-15T15:52:30.778Z,2.97
2017-08-15T15:54:57.489Z,2.63
2017-08-15T15:57:24.212Z,2.80
2017-08-15T15:59:50.970Z,2.80
2017-08-15T16:02:17.701Z,2.93
2017-08-15T16:04:44.424Z,3.03
2017-08-15T16:07:11.150Z,2.80
2017-08-15T16:09:37.865Z,2.93
2017-08-15T16:12:04.576Z,3.00
2017-08-15T16:14:31.291Z,2.70
2017-08-15T16:16:58.046Z,3.07
2017-08-15T16:19:24.770Z,3.10
2017-08-15T16:21:51.481Z,2.60
2017-08-15T16:24:18.214Z,2.80
2017-08-15T16:26:44.935Z,3.03
2017-08-15T16:29:11.664Z,2.93
2017-08-15T16:31:38.383Z,3.20
2017-08-15T16:34:05.109Z,2.93
2017-08-15T16:36:31.809Z,3.30
2017-08-15T16:38:58.530Z,2.87
2017-08-15T16:41:25.346Z,4.20
2017-08-15T16:43:52.086Z,3.27
2017-08-15T16:46:18.854Z,2.97
2017-08-15T16:48:45.634Z,2.73
2017-08-15T16:51:12.384Z,3.13
2017-08-15T16:53:39.131Z,3.20
2017-08-15T16:56:05.910Z,3.00
2017-08-15T16:58:32.664Z,2.50
2017-08-15T17:00:59.648Z,2.80
2017-08-15T17:03:26.422Z,3.00
2017-08-15T17:05:53.137Z,3.97
2017-08-15T17:08:19.867Z,3.17
2017-08-15T17:10:46.610Z,3.07
2017-08-15T17:13:13.317Z,3.13
2017-08-15T17:15:40.038Z,3.40
2017-08-15T17:18:06.767Z,3.40
2017-08-15T17:20:33.576Z,3.47
2017-08-15T17:23:00.338Z,3.70
2017-08-15T17:25:27.100Z,5.10
2017-08-15T17:27:53.810Z,3.30
2017-08-15T17:30:20.522Z,3.10
2017-08-15T17:32:47.227Z,2.93
2017-08-15T17:35:13.978Z,3.27
2017-08-15T17:37:40.713Z,3.37
2017-08-15T17:40:07.470Z,3.83
2017-08-15T17:42:34.181Z,3.23
2017-08-15T17:45:00.930Z,4.40
2017-08-15T17:47:27.658Z,3.60
2017-08-15T17:49:54.378Z,2.90
2017-08-15T17:52:21.111Z,5.20
2017-08-15T17:54:47.827Z,3.00
2017-08-15T17:57:14.530Z,3.43
2017-08-15T17:59:41.246Z,3.83
2017-08-15T18:02:07.978Z,3.47
2017-08-15T18:04:34.712Z,3.47
2017-08-15T18:07:01.427Z,4.47
2017-08-15T18:09:28.228Z,5.63
2017-08-15T18:11:54.954Z,4.07
2017-08-15T18:14:21.682Z,3.77
2017-08-15T18:16:48.418Z,3.73
2017-08-15T18:19:15.147Z,3.73
2017-08-15T18:21:41.967Z,4.40
2017-08-15T18:24:08.690Z,3.60
2017-08-15T18:26:35.440Z,4.20
2017-08-15T18:29:02.179Z,3.67
2017-08-15T18:31:28.940Z,4.97
2017-08-15T18:33:55.662Z,4.13
2017-08-15T18:36:22.394Z,4.30
2017-08-15T18:38:49.215Z,4.10
2017-08-15T18:41:15.941Z,4.47
2017-08-15T18:43:42.692Z,4.07
2017-08-15T18:46:09.440Z,4.00
2017-08-15T18:48:36.177Z,3.40
2017-08-15T18:51:02.907Z,5.17
2017-08-15T18:53:29.656Z,4.33
2017-08-15T18:55:56.379Z,4.23
2017-08-15T18:58:23.224Z,7.00
2017-08-15T19:00:49.947Z,4.40
2017-08-15T19:03:16.706Z,4.50
2017-08-15T19:05:43.627Z,3.77
2017-08-15T19:08:10.568Z,4.00
2017-08-15T19:10:37.333Z,4.80
2017-08-15T19:13:04.202Z,3.93
2017-08-15T19:15:31.017Z,3.70
2017-08-15T19:17:57.786Z,3.37
2017-08-15T19:20:27.138Z,3.50
2017-08-15T19:22:53.955Z,3.70
2017-08-15T19:25:22.498Z,5.60
2017-08-15T19:27:49.278Z,4.27
2017-08-15T19:30:16.031Z,4.27
2017-08-15T19:32:42.843Z,3.60
2017-08-15T19:35:09.591Z,4.00
2017-08-15T19:37:36.459Z,5.50
2017-08-15T19:40:03.204Z,4.37
2017-08-15T19:42:29.949Z,3.87
2017-08-15T19:44:56.794Z,3.70
2017-08-15T19:47:23.758Z,3.83
2017-08-15T19:49:50.516Z,4.30
2017-08-15T19:52:17.398Z,10.10
2017-08-15T19:54:44.198Z,3.73
2017-08-15T19:57:11.087Z,4.00
2017-08-15T19:59:38.616Z,4.30
2017-08-15T20:02:05.367Z,4.30
2017-08-15T20:04:32.100Z,4.30
2017-08-15T20:06:58.924Z,3.90
2017-08-15T20:09:25.658Z,4.60
2017-08-15T20:11:52.494Z,8.23
2017-08-15T20:14:19.254Z,4.20
2017-08-15T20:16:46.012Z,4.20
2017-08-15T20:19:12.729Z,4.50
2017-08-15T20:21:39.462Z,3.97
2017-08-15T20:24:06.341Z,4.00
2017-08-15T20:26:33.138Z,4.10
2017-08-15T20:28:59.878Z,4.80
2017-08-15T20:31:26.597Z,3.97
2017-08-15T20:33:54.102Z,4.47
2017-08-15T20:36:20.893Z,4.13
2017-08-15T20:38:47.693Z,6.00
2017-08-15T20:41:14.466Z,4.00
2017-08-15T20:43:41.355Z,5.07
2017-08-15T20:46:08.120Z,3.77
2017-08-15T20:48:34.855Z,3.90
2017-08-15T20:51:01.916Z,3.90
2017-08-15T20:53:28.655Z,4.10
2017-08-15T20:55:55.378Z,6.63
2017-08-15T20:58:22.193Z,4.30
2017-08-15T21:00:48.915Z,3.63
2017-08-15T21:03:15.687Z,4.47
2017-08-15T21:05:42.424Z,4.63
2017-08-15T21:08:09.229Z,5.20
2017-08-15T21:10:35.948Z,4.40
2017-08-15T21:13:03.040Z,5.53
2017-08-15T21:15:29.855Z,4.50
2017-08-15T21:17:56.593Z,4.47
2017-08-15T21:20:23.343Z,4.80
2017-08-15T21:22:50.076Z,5.80
2017-08-15T21:25:16.814Z,4.60
2017-08-15T21:27:43.545Z,4.40
2017-08-15T21:30:10.262Z,4.43
2017-08-15T21:32:37.073Z,4.40
2017-08-15T21:35:03.835Z,4.30
2017-08-15T21:37:30.636Z,4.73
2017-08-15T21:39:57.347Z,4.70
2017-08-15T21:42:24.083Z,4.10
2017-08-15T21:44:50.811Z,5.00
2017-08-15T21:47:17.573Z,4.53
2017-08-15T21:49:44.291Z,8.00
2017-08-15T21:52:11.011Z,4.60
2017-08-15T21:54:37.746Z,4.90
2017-08-15T21:57:04.486Z,4.83
2017-08-15T21:59:31.224Z,4.50
2017-08-15T22:02:17.646Z,4.93
2017-08-15T22:04:44.365Z,6.20
2017-08-15T22:07:11.106Z,5.37
2017-08-15T22:09:37.826Z,4.80
2017-08-15T22:12:04.587Z,4.30
2017-08-15T22:14:31.302Z,5.30
2017-08-15T22:16:58.067Z,4.20
2017-08-15T22:19:24.786Z,4.70
2017-08-15T22:21:51.507Z,5.77
2017-08-15T22:24:18.246Z,4.70
2017-08-15T22:26:45.065Z,10.63
2017-08-15T22:29:11.777Z,4.43
2017-08-15T22:31:38.515Z,4.50
2017-08-15T22:34:05.240Z,5.10
2017-08-15T22:36:31.954Z,4.63
2017-08-15T22:38:58.690Z,5.70
2017-08-15T22:41:25.411Z,5.00
2017-08-15T22:43:52.131Z,4.93
2017-08-15T22:46:18.917Z,5.00
2017-08-15T22:48:45.660Z,4.90
2017-08-15T22:51:12.399Z,5.57
2017-08-15T22:53:39.183Z,4.20
2017-08-15T22:56:05.965Z,4.83
2017-08-15T22:58:32.698Z,5.20
2017-08-15T23:00:59.440Z,5.60
2017-08-15T23:03:26.154Z,5.20
2017-08-15T23:05:52.925Z,4.60
2017-08-15T23:08:19.749Z,4.70
2017-08-15T23:10:46.536Z,5.40
2017-08-15T23:13:13.255Z,4.70
2017-08-15T23:15:40.009Z,5.87
2017-08-15T23:18:06.725Z,5.27
2017-08-15T23:20:33.446Z,5.23
2017-08-15T23:23:00.182Z,4.83
2017-08-15T23:25:26.911Z,5.53
2017-08-15T23:27:53.622Z,4.93
2017-08-15T23:30:20.386Z,5.00
2017-08-15T23:32:47.100Z,5.50
2017-08-15T23:35:13.872Z,7.93
2017-08-15T23:37:40.639Z,6.00
2017-08-15T23:40:07.347Z,5.83
2017-08-15T23:42:34.089Z,5.07
2017-08-15T23:45:00.836Z,5.90
2017-08-15T23:47:27.591Z,5.07
2017-08-15T23:49:54.312Z,5.47
2017-08-15T23:52:21.071Z,5.70
2017-08-15T23:54:47.804Z,5.43
2017-08-15T23:57:14.557Z,5.27
2017-08-15T23:59:41.317Z,4.90
